Time;durP1;ratioP1;P1;durP2;ratioP2;P2;SDS_P1;SDS_P2;PMS_P1;PMS_P2;Temp;Humidity;BMP_temperature;BMP_pressure;BME280_temperature;BME280_humidity;BME280_pressure;Samples;Min_cycle;Max_cycle;Signal;HPM_P1;HPM_P2
2023/12/05 00:00:37;;;;;;;82.70;45.40;;;;;;;-5.76;83.79;100437.02;103057;1255;138890;-69
2023/12/05 00:03:22;;;;;;;;;;;;;;;-5.77;83.76;100432.58;103194;1256;97696;-70
2023/12/05 00:05:49;;;;;;;95.30;46.90;;;;;;;-5.82;83.64;100435.97;103053;1259;124472;-70
2023/12/05 00:08:17;;;;;;;83.90;43.10;;;;;;;-5.90;83.66;100433.48;103163;1258;97870;-69
2023/12/05 00:10:44;;;;;;;79.30;42.70;;;;;;;-5.96;83.65;100438.67;103200;1257;110649;-69
2023/12/05 00:13:11;;;;;;;77.10;42.10;;;;;;;-6.00;83.94;100439.90;103085;1256;139036;-69
2023/12/05 00:15:38;;;;;;;71.40;39.30;;;;;;;-6.01;84.26;100436.45;102467;1254;1003143;-70
2023/12/05 00:18:08;;;;;;;68.80;39.50;;;;;;;-6.01;83.94;100434.94;103046;1258;139021;-70
2023/12/05 00:20:34;;;;;;;75.60;41.30;;;;;;;-5.98;83.96;100431.48;103209;1255;97782;-71
2023/12/05 00:23:01;;;;;;;78.10;43.40;;;;;;;-5.96;84.22;100431.89;103266;1259;110875;-71
2023/12/05 00:25:28;;;;;;;80.20;44.30;;;;;;;-5.95;84.19;100426.20;103066;1254;138421;-71
2023/12/05 00:27:55;;;;;;;78.50;43.70;;;;;;;-5.94;84.11;100423.85;101760;1259;1003591;-71
2023/12/05 00:30:22;;;;;;;82.30;45.00;;;;;;;-5.96;84.06;100424.29;101551;1254;1003339;-69
2023/12/05 00:32:48;;;;;;;78.90;42.20;;;;;;;-6.01;84.12;100417.34;103137;1254;97685;-69
2023/12/05 00:35:18;;;;;;;78.70;42.30;;;;;;;-6.04;84.34;100413.86;101643;1254;1003571;-69
2023/12/05 00:37:45;;;;;;;74.80;39.80;;;;;;;-6.05;84.23;100416.20;101541;1259;1003612;-70
2023/12/05 00:40:13;;;;;;;75.90;39.80;;;;;;;-6.03;84.33;100417.09;102428;1254;1003415;-68
2023/12/05 00:42:40;;;;;;;72.70;37.70;;;;;;;-6.03;84.61;100414.71;103063;1258;139003;-70
2023/12/05 00:45:11;;;;;;;71.40;37.50;;;;;;;-6.03;84.36;100402.89;103146;1259;97874;-70
2023/12/05 00:47:37;;;;;;;80.20;40.70;;;;;;;-5.94;84.58;100405.75;103286;1253;138791;-69
2023/12/05 00:50:05;;;;;;;74.30;41.40;;;;;;;-5.88;84.62;100406.98;103062;1257;107154;-70
2023/12/05 00:52:32;;;;;;;79.40;42.50;;;;;;;-5.86;84.35;100408.55;103585;1256;1002489;-69
2023/12/05 00:54:59;;;;;;;80.70;43.70;;;;;;;-5.82;84.44;100410.89;103064;1254;140145;-70
2023/12/05 00:57:26;;;;;;;79.10;41.70;;;;;;;-5.84;84.45;100407.45;103212;1254;97778;-69
2023/12/05 00:59:53;;;;;;;77.40;40.40;;;;;;;-5.85;84.39;100410.61;103085;1258;138575;-70
2023/12/05 01:02:21;;;;;;;73.50;38.80;;;;;;;-5.89;83.97;100412.35;103098;1254;107823;-71
2023/12/05 01:04:47;;;;;;;79.30;39.30;;;;;;;-5.91;84.05;100411.11;101737;1254;1003714;-70
2023/12/05 01:07:15;;;;;;;69.70;36.90;;;;;;;-5.91;84.12;100406.73;103150;1254;140504;-70
2023/12/05 01:09:42;;;;;;;70.10;36.10;;;;;;;-5.93;84.15;100403.59;103271;1254;97810;-70
2023/12/05 01:12:11;;;;;;;67.00;35.70;;;;;;;-5.96;84.30;100400.58;103117;1258;139132;-71
2023/12/05 01:14:38;;;;;;;66.10;35.90;;;;;;;-5.96;84.50;100402.13;103144;1254;107747;-71
2023/12/05 01:17:05;;;;;;;69.60;38.20;;;;;;;-5.91;84.43;100397.40;103202;1259;97817;-72
2023/12/05 01:19:35;;;;;;;66.60;37.40;;;;;;;-5.88;84.28;100393.95;103073;1254;138079;-71
2023/12/05 01:22:02;;;;;;;73.00;38.90;;;;;;;-5.87;84.36;100389.04;103207;1254;97813;-71
2023/12/05 01:24:29;;;;;;;71.00;39.40;;;;;;;-5.88;83.97;100385.14;103140;1259;138022;-70
2023/12/05 01:26:56;;;;;;;71.00;39.90;;;;;;;-5.91;84.19;100379.98;102480;1254;1003559;-70
2023/12/05 01:29:23;;;;;;;72.60;40.80;;;;;;;-5.96;83.91;100378.06;103238;1255;97678;-70
2023/12/05 01:31:50;;;;;;;70.10;36.50;;;;;;;-6.03;84.03;100375.79;102299;1254;1003277;-71
2023/12/05 01:34:17;;;;;;;79.90;37.80;;;;;;;-6.07;84.18;100373.11;103196;1254;97875;-71
2023/12/05 01:36:43;;;;;;;65.60;33.90;;;;;;;-6.07;84.22;100370.23;103100;1256;139485;-70
2023/12/05 01:39:13;;;;;;;59.80;33.70;;;;;;;-6.03;84.53;100364.80;103120;1259;108772;-70
2023/12/05 01:41:40;;;;;;;61.70;32.80;;;;;;;-5.97;84.80;100361.11;103079;1256;138979;-71
2023/12/05 01:44:06;;;;;;;63.80;35.40;;;;;;;-5.92;84.69;100350.48;103213;1254;107159;-70
2023/12/05 01:46:34;;;;;;;65.50;35.90;;;;;;;-5.88;84.46;100346.87;103169;1254;97818;-70
2023/12/05 01:49:02;;;;;;;67.60;37.20;;;;;;;-5.84;84.59;100350.55;102367;1254;1003808;-70
2023/12/05 01:51:40;;;;;;;63.30;36.50;;;;;;;-5.84;84.33;100354.45;102397;1259;1003462;-69
2023/12/05 01:54:07;;;;;;;70.60;39.00;;;;;;;-5.88;84.08;100360.23;102383;1254;1002717;-70
2023/12/05 01:56:34;;;;;;;65.40;35.10;;;;;;;-5.92;83.99;100357.23;102431;1258;1003657;-70
2023/12/05 01:59:01;;;;;;;63.10;35.40;;;;;;;-5.97;84.30;100355.01;103224;1254;97797;-69
2023/12/05 02:01:29;;;;;;;58.50;32.20;;;;;;;-6.03;84.66;100347.36;103039;1258;140957;-69
2023/12/05 02:03:57;;;;;;;63.30;33.50;;;;;;;-6.08;84.40;100345.67;102407;1254;1003052;-70
2023/12/05 02:06:26;;;;;;;57.00;31.50;;;;;;;-6.11;84.65;100339.83;102275;1256;1005459;-69
2023/12/05 02:08:54;;;;;;;57.70;31.20;;;;;;;-6.10;84.79;100340.55;102416;1254;1003078;-70
2023/12/05 02:11:20;;;;;;;50.10;30.40;;;;;;;-6.08;84.87;100333.48;103188;1259;97793;-69
2023/12/05 02:13:49;;;;;;;55.60;31.40;;;;;;;-6.06;85.11;100330.49;103055;1254;138322;-69
2023/12/05 02:16:24;;;;;;;53.70;30.90;;;;;;;-5.98;85.05;100334.66;103221;1254;107348;-70
2023/12/05 02:18:57;;;;;;;58.90;33.80;;;;;;;-5.94;85.09;100330.08;103100;1256;138090;-69
2023/12/05 02:21:31;;;;;;;60.70;34.60;;;;;;;-5.90;85.03;100327.84;102473;1254;1003074;-69
2023/12/05 02:24:25;;;;;;;60.80;35.10;;;;;;;-5.86;84.93;100335.07;103074;1254;138560;-69
2023/12/05 02:26:58;;;;;;;62.00;35.50;;;;;;;-5.88;84.52;100337.55;102496;1254;1003600;-70
2023/12/05 02:29:26;;;;;;;57.60;32.10;;;;;;;-5.91;84.81;100336.63;102458;1255;1003527;-70
2023/12/05 02:31:53;;;;;;;56.90;32.20;;;;;;;-5.93;84.90;100340.61;102248;1254;1003881;-70
2023/12/05 02:34:21;;;;;;;55.80;30.70;;;;;;;-5.94;84.95;100345.30;103174;1254;108034;-70
2023/12/05 02:37:03;;;;;;;55.00;30.50;;;;;;;-5.93;84.86;100339.59;101547;1258;1015585;-70
2023/12/05 02:39:46;;;;;;;53.50;29.40;;;;;;;-5.90;84.85;100335.47;103199;1254;111358;-71
2023/12/05 02:42:15;;;;;;;57.20;30.50;;;;;;;-5.86;84.87;100336.94;103309;1254;1003276;-70
2023/12/05 02:44:47;;;;;;;58.00;32.30;;;;;;;-5.81;84.57;100336.77;103227;1254;98185;-70
2023/12/05 02:47:16;;;;;;;61.10;34.00;;;;;;;-5.78;84.65;100337.54;103206;1258;108422;-71
2023/12/05 02:49:44;;;;;;;60.50;34.10;;;;;;;-5.77;84.65;100340.80;103129;1258;138381;-70
2023/12/05 02:52:11;;;;;;;59.20;33.90;;;;;;;-5.78;84.33;100338.89;102490;1254;1003037;-70
2023/12/05 02:54:38;;;;;;;64.40;34.90;;;;;;;-5.80;83.93;100341.54;103030;1254;138699;-70
2023/12/05 02:57:06;;;;;;;61.60;34.60;;;;;;;-5.84;84.13;100338.71;103177;1254;97809;-70
2023/12/05 02:59:33;;;;;;;63.20;34.10;;;;;;;-5.86;84.31;100336.59;102955;1256;107568;-70
2023/12/05 03:01:59;;;;;;;59.30;32.20;;;;;;;-5.88;84.21;100337.56;103199;1258;97886;-70
2023/12/05 03:04:27;;;;;;;55.80;31.70;;;;;;;-5.90;84.28;100338.52;103118;1256;110350;-69
2023/12/05 03:06:54;;;;;;;59.80;32.90;;;;;;;-5.89;84.11;100337.88;103039;1259;139306;-70
2023/12/05 03:09:21;;;;;;;54.70;30.80;;;;;;;-5.86;84.16;100335.41;103149;1256;97848;-70
2023/12/05 03:11:48;;;;;;;57.00;31.40;;;;;;;-5.84;84.28;100336.68;102294;1256;1003145;-70
2023/12/05 03:14:15;;;;;;;53.10;30.90;;;;;;;-5.82;84.42;100333.17;102434;1256;1003102;-70
2023/12/05 03:16:42;;;;;;;55.70;29.70;;;;;;;-5.76;84.18;100332.70;102387;1256;1003107;-72
2023/12/05 03:19:09;;;;;;;59.10;33.50;;;;;;;-5.71;84.31;100330.86;103070;1256;138649;-70
2023/12/05 03:21:37;;;;;;;59.10;33.10;;;;;;;-5.67;84.22;100329.30;101669;1256;1015199;-70
2023/12/05 03:24:04;;;;;;;57.50;33.70;;;;;;;-5.64;84.21;100326.34;102330;1259;1003038;-71
2023/12/05 03:26:31;;;;;;;59.30;33.60;;;;;;;-5.63;84.12;100322.66;103222;1259;97804;-72
2023/12/05 03:28:58;;;;;;;57.00;31.60;;;;;;;-5.65;83.82;100320.23;103021;1256;111201;-70
2023/12/05 03:31:25;;;;;;;56.10;31.90;;;;;;;-5.66;83.93;100322.55;103049;1258;140340;-70
2023/12/05 03:33:52;;;;;;;54.40;31.30;;;;;;;-5.66;84.05;100319.33;102426;1254;1002698;-69
2023/12/05 03:36:19;;;;;;;54.20;31.10;;;;;;;-5.65;84.10;100318.17;103114;1254;140354;-69
2023/12/05 03:38:46;;;;;;;54.20;28.90;;;;;;;-5.64;83.83;100315.52;102360;1256;1015311;-70
2023/12/05 03:41:12;;;;;;;50.50;29.50;;;;;;;-5.63;83.80;100316.23;103194;1254;110165;-71
2023/12/05 03:43:39;;;;;;;51.00;28.90;;;;;;;-5.61;84.07;100314.23;103054;1257;139048;-70
2023/12/05 03:46:06;;;;;;;47.40;28.00;;;;;;;-5.59;84.06;100320.09;103169;1256;98598;-70
2023/12/05 03:48:33;;;;;;;51.50;29.80;;;;;;;-5.56;83.88;100321.39;103086;1256;138952;-71
2023/12/05 03:51:00;;;;;;;53.70;31.80;;;;;;;-5.54;83.84;100312.48;102451;1256;1002750;-71
2023/12/05 03:53:27;;;;;;;57.60;33.00;;;;;;;-5.52;83.90;100309.15;102382;1259;1002894;-71
2023/12/05 03:55:55;;;;;;;57.40;33.40;;;;;;;-5.50;83.42;100309.20;103038;1254;138382;-71
2023/12/05 03:58:22;;;;;;;53.60;31.20;;;;;;;-5.53;83.67;100304.02;103073;1255;97770;-70
2023/12/05 04:00:48;;;;;;;50.00;29.20;;;;;;;-5.54;83.48;100306.71;103016;1256;138872;-71
2023/12/05 04:03:15;;;;;;;51.60;29.60;;;;;;;-5.56;83.28;100306.30;102421;1256;1003589;-71
2023/12/05 04:05:43;;;;;;;51.50;30.80;;;;;;;-5.55;83.55;100304.16;103026;1254;141012;-70
2023/12/05 04:08:10;;;;;;;47.80;28.90;;;;;;;-5.54;83.60;100301.95;103088;1254;107114;-69
2023/12/05 04:10:37;;;;;;;50.10;29.10;;;;;;;-5.50;83.72;100300.23;103132;1256;97967;-69
2023/12/05 04:13:04;;;;;;;49.60;29.00;;;;;;;-5.47;83.58;100301.17;102333;1254;1002919;-70
2023/12/05 04:15:30;;;;;;;51.10;30.10;;;;;;;-5.42;83.53;100300.48;103219;1259;97802;-70
2023/12/05 04:17:57;;;;;;;51.10;30.10;;;;;;;-5.37;83.47;100298.10;103148;1256;138974;-70
2023/12/05 04:20:24;;;;;;;53.20;32.40;;;;;;;-5.35;83.46;100299.86;102437;1259;1002648;-70
2023/12/05 04:22:51;;;;;;;57.70;33.90;;;;;;;-5.32;83.25;100296.06;103237;1258;97877;-69
2023/12/05 04:25:18;;;;;;;53.60;31.20;;;;;;;-5.30;83.42;100291.39;103143;1254;138042;-70
2023/12/05 04:27:45;;;;;;;53.60;31.30;;;;;;;-5.30;83.07;100286.65;103242;1254;97928;-69
2023/12/05 04:30:13;;;;;;;48.90;29.30;;;;;;;-5.30;82.88;100284.27;103100;1258;138846;-69
2023/12/05 04:32:41;;;;;;;49.10;29.40;;;;;;;-5.30;83.16;100283.76;102366;1259;1002821;-70
2023/12/05 04:35:08;;;;;;;48.60;28.40;;;;;;;-5.30;82.55;100278.50;103202;1256;99019;-70
2023/12/05 04:37:35;;;;;;;50.60;29.90;;;;;;;-5.32;83.02;100275.88;103104;1254;139124;-70
2023/12/05 04:40:11;;;;;;;48.10;29.20;;;;;;;-5.30;82.97;100279.20;103171;1254;97697;-71
2023/12/05 04:42:38;;;;;;;53.10;28.80;;;;;;;-5.28;82.89;100280.42;103795;1254;1002377;-70
2023/12/05 04:45:07;;;;;;;45.20;28.00;;;;;;;-5.27;82.88;100277.59;102143;1254;1003159;-70
2023/12/05 04:47:34;;;;;;;47.20;27.10;;;;;;;-5.25;82.79;100277.98;103399;1254;98395;-69
2023/12/05 04:50:00;;;;;;;47.40;28.00;;;;;;;-5.23;82.97;100275.98;102463;1254;1003395;-69
2023/12/05 04:52:27;;;;;;;45.30;27.10;;;;;;;-5.23;82.66;100271.60;103240;1254;97801;-70
2023/12/05 04:54:55;;;;;;;46.10;26.80;;;;;;;-5.23;82.53;100279.39;103021;1254;139578;-71
2023/12/05 04:57:21;;;;;;;46.10;26.70;;;;;;;-5.23;82.69;100279.39;103267;1259;107081;-70
2023/12/05 04:59:48;;;;;;;49.90;28.10;;;;;;;-5.24;82.40;100280.70;103126;1258;139680;-71
2023/12/05 05:02:15;;;;;;;48.90;29.40;;;;;;;-5.26;82.15;100276.43;103156;1256;108355;-70
2023/12/05 05:04:42;;;;;;;48.80;30.20;;;;;;;-5.25;82.33;100272.03;103159;1256;97816;-71
2023/12/05 05:07:09;;;;;;;51.20;30.10;;;;;;;-5.25;82.28;100274.42;103064;1255;138012;-71
2023/12/05 05:09:40;;;;;;;47.40;29.00;;;;;;;-5.26;82.17;100276.09;102371;1259;1003431;-71
2023/12/05 05:12:08;;;;;;;47.40;28.90;;;;;;;-5.28;82.45;100274.15;103327;1259;140294;-71
2023/12/05 05:14:36;;;;;;;47.80;28.90;;;;;;;-5.30;82.38;100273.09;104325;1259;108313;-71
2023/12/05 05:17:03;;;;;;;41.90;27.00;;;;;;;-5.30;82.36;100275.96;103158;1259;97814;-70
2023/12/05 05:19:30;;;;;;;46.00;26.20;;;;;;;-5.30;82.53;100276.45;103041;1256;138949;-70
2023/12/05 05:21:57;;;;;;;42.90;26.40;;;;;;;-5.30;82.26;100277.14;103121;1259;106741;-70
2023/12/05 05:24:24;;;;;;;46.80;28.30;;;;;;;-5.28;82.78;100280.25;102357;1258;1003373;-69
2023/12/05 05:26:51;;;;;;;47.20;27.60;;;;;;;-5.26;82.50;100281.32;103215;1256;107133;-70
2023/12/05 05:29:18;;;;;;;45.40;27.40;;;;;;;-5.25;82.10;100280.70;103161;1257;97784;-68
2023/12/05 05:31:45;;;;;;;44.20;26.50;;;;;;;-5.25;82.27;100275.78;102271;1256;1003273;-71
2023/12/05 05:34:12;;;;;;;46.00;26.80;;;;;;;-5.26;82.12;100281.85;101598;1256;1003131;-70
2023/12/05 05:36:39;;;;;;;44.00;27.40;;;;;;;-5.26;82.42;100276.92;103037;1256;139369;-71
2023/12/05 05:39:07;;;;;;;43.40;26.60;;;;;;;-5.24;82.25;100277.65;103181;1256;108502;-71
2023/12/05 05:41:34;;;;;;;47.00;27.80;;;;;;;-5.24;82.12;100279.18;101613;1255;1003813;-71
2023/12/05 05:44:01;;;;;;;47.30;29.20;;;;;;;-5.25;82.02;100277.98;103169;1256;110595;-70
2023/12/05 05:46:28;;;;;;;46.90;27.90;;;;;;;-5.28;81.85;100276.02;103154;1259;107154;-70
2023/12/05 05:48:55;;;;;;;48.00;29.60;;;;;;;-5.30;82.19;100274.79;103083;1259;138570;-69
2023/12/05 05:51:22;;;;;;;50.20;30.40;;;;;;;-5.33;81.90;100273.00;102336;1256;1002642;-69
2023/12/05 05:53:48;;;;;;;46.80;28.60;;;;;;;-5.35;82.30;100272.23;103039;1256;138674;-69
2023/12/05 05:56:15;;;;;;;48.40;29.20;;;;;;;-5.35;82.42;100276.64;103118;1257;113484;-70
2023/12/05 05:58:42;;;;;;;50.90;28.20;;;;;;;-5.35;81.85;100275.11;103132;1258;105991;-69
2023/12/05 06:01:11;;;;;;;45.00;26.90;;;;;;;-5.37;82.14;100276.27;102263;1256;1003078;-70
2023/12/05 06:03:38;;;;;;;45.80;27.10;;;;;;;-5.38;82.22;100276.04;101653;1256;1002593;-69
2023/12/05 06:06:05;;;;;;;44.40;27.10;;;;;;;-5.37;82.32;100273.20;102990;1256;139153;-69
2023/12/05 06:08:32;;;;;;;45.40;27.70;;;;;;;-5.36;82.31;100269.48;103167;1254;110246;-69
2023/12/05 06:10:59;;;;;;;43.00;26.70;;;;;;;-5.35;82.10;100266.48;103014;1256;106614;-69
2023/12/05 06:13:26;;;;;;;44.20;26.00;;;;;;;-5.36;82.08;100262.23;102245;1256;1003472;-69
2023/12/05 06:15:53;;;;;;;44.30;26.10;;;;;;;-5.34;82.48;100263.64;103173;1256;107747;-69
2023/12/05 06:18:20;;;;;;;46.70;26.60;;;;;;;-5.32;82.27;100262.67;102245;1259;1003157;-69
2023/12/05 06:20:51;;;;;;;48.20;27.20;;;;;;;-5.31;82.16;100264.08;102341;1256;1003102;-68
2023/12/05 06:23:18;;;;;;;46.30;26.40;;;;;;;-5.28;82.10;100264.67;103042;1256;109400;-68
2023/12/05 06:25:45;;;;;;;44.80;26.90;;;;;;;-5.27;81.90;100262.32;102937;1256;139077;-68
2023/12/05 06:28:12;;;;;;;48.00;27.40;;;;;;;-5.27;81.73;100259.27;103103;1259;108191;-68
2023/12/05 06:30:39;;;;;;;46.60;28.30;;;;;;;-5.27;81.74;100256.41;102989;1258;138187;-69
2023/12/05 06:33:07;;;;;;;48.80;28.90;;;;;;;-5.26;81.92;100252.35;102341;1254;1003080;-68
2023/12/05 06:35:34;;;;;;;47.70;27.70;;;;;;;-5.26;81.73;100257.45;103077;1256;108174;-75
2023/12/05 06:38:01;;;;;;;46.80;27.40;;;;;;;-5.27;81.50;100257.75;102372;1257;1002546;-68
2023/12/05 06:40:28;;;;;;;46.30;26.50;;;;;;;-5.29;81.69;100260.23;103050;1259;108386;-69
2023/12/05 06:42:54;;;;;;;42.60;26.50;;;;;;;-5.28;81.62;100257.89;103036;1255;138917;-68
2023/12/05 06:45:21;;;;;;;46.20;26.00;;;;;;;-5.26;81.38;100258.44;103073;1259;111439;-68
2023/12/05 06:47:48;;;;;;;44.20;25.80;;;;;;;-5.24;81.39;100258.02;102977;1255;143419;-69
2023/12/05 06:50:15;;;;;;;42.40;26.30;;;;;;;-5.19;81.96;100259.04;101647;1256;1015484;-69
2023/12/05 06:52:43;;;;;;;44.30;24.70;;;;;;;-5.15;81.48;100259.15;103215;1256;108060;-70
2023/12/05 06:55:10;;;;;;;41.70;23.70;;;;;;;-5.08;81.51;100262.41;102841;1260;138821;-68
2023/12/05 06:57:37;;;;;;;41.00;23.10;;;;;;;-5.02;81.60;100261.09;102423;1259;1003537;-66
2023/12/05 07:00:06;;;;;;;42.40;24.30;;;;;;;-4.93;82.32;100263.20;103071;1259;140073;-65
2023/12/05 07:02:33;;;;;;;42.40;23.90;;;;;;;-4.79;82.33;100260.26;103275;1258;97889;-70
2023/12/05 07:05:04;;;;;;;45.20;26.20;;;;;;;-4.68;81.97;100261.59;103205;1254;107858;-69
2023/12/05 07:07:32;;;;;;;43.30;26.10;;;;;;;-4.63;81.41;100255.47;102260;1259;1003102;-69
2023/12/05 07:09:59;;;;;;;46.20;26.70;;;;;;;-4.57;81.41;100255.61;102348;1257;1003069;-69
2023/12/05 07:12:26;;;;;;;46.00;27.60;;;;;;;-4.54;80.58;100255.19;101540;1259;1003384;-69
2023/12/05 07:14:53;;;;;;;44.50;27.70;;;;;;;-4.54;80.48;100250.11;103162;1257;98401;-70
2023/12/05 07:17:20;;;;;;;49.30;27.70;;;;;;;-4.57;80.18;100244.42;102391;1254;1003199;-68
2023/12/05 07:19:47;;;;;;;43.20;25.60;;;;;;;-4.61;80.32;100242.78;102335;1256;1003716;-69
2023/12/05 07:22:14;;;;;;;40.50;23.20;;;;;;;-4.61;80.25;100246.19;101640;1254;1003764;-68
2023/12/05 07:24:40;;;;;;;41.40;24.20;;;;;;;-4.62;80.45;100247.70;102260;1258;1003119;-68
2023/12/05 07:27:08;;;;;;;39.40;23.30;;;;;;;-4.59;80.50;100246.76;101676;1258;1003263;-69
2023/12/05 07:29:35;;;;;;;42.20;24.40;;;;;;;-4.51;80.05;100247.29;102393;1256;1003553;-68
2023/12/05 07:32:02;;;;;;;46.10;26.70;;;;;;;-4.43;80.63;100246.36;103088;1259;97791;-69
2023/12/05 07:34:29;;;;;;;44.40;26.40;;;;;;;-4.35;79.96;100246.40;103147;1258;110623;-68
2023/12/05 07:36:56;;;;;;;43.20;25.50;;;;;;;-4.28;80.10;100243.72;103018;1258;138269;-66
2023/12/05 07:39:25;;;;;;;45.30;27.40;;;;;;;-4.21;79.50;100243.54;102909;1254;97903;-69
2023/12/05 07:41:53;;;;;;;45.30;27.30;;;;;;;-4.17;79.21;100242.28;102267;1256;1003223;-69
2023/12/05 07:44:20;;;;;;;43.00;26.50;;;;;;;-4.12;79.18;100240.39;103151;1253;97672;-70
2023/12/05 07:46:47;;;;;;;40.60;24.10;;;;;;;-4.08;79.23;100238.13;101548;1256;1003600;-70
2023/12/05 07:49:14;;;;;;;39.10;23.80;;;;;;;-4.00;78.91;100237.50;102153;1255;1002588;-67
2023/12/05 07:51:41;;;;;;;41.90;24.50;;;;;;;-3.84;79.00;100236.37;102371;1256;1002762;-69
2023/12/05 07:54:08;;;;;;;39.50;24.00;;;;;;;-3.63;79.21;100231.96;103047;1255;140005;-70
2023/12/05 07:56:35;;;;;;;39.90;24.80;;;;;;;-3.40;78.52;100232.54;102367;1256;1003234;-69
2023/12/05 07:59:02;;;;;;;42.30;26.50;;;;;;;-3.14;78.46;100225.31;102418;1257;1003372;-69
2023/12/05 08:01:29;;;;;;;43.40;25.50;;;;;;;-2.89;77.41;100223.15;103017;1258;138660;-69
2023/12/05 08:03:57;;;;;;;41.80;25.80;;;;;;;-2.64;77.46;100221.80;103092;1255;98341;-70
2023/12/05 08:06:24;;;;;;;45.60;27.20;;;;;;;-2.33;77.19;100221.73;103544;1255;1002406;-69
2023/12/05 08:08:52;;;;;;;44.10;26.60;;;;;;;-2.04;76.71;100220.41;103463;1259;1002727;-70
2023/12/05 08:11:20;;;;;;;42.20;26.60;;;;;;;-1.73;76.37;100216.36;102984;1256;110693;-67
2023/12/05 08:13:49;;;;;;;40.10;25.90;;;;;;;-1.41;76.02;100205.28;101475;1257;1003149;-66
2023/12/05 08:16:16;;;;;;;41.90;25.60;;;;;;;-1.06;75.55;100207.66;104254;1259;98097;-68
2023/12/05 08:18:44;;;;;;;40.40;26.50;;;;;;;-0.76;74.24;100203.30;102992;1256;138503;-65
2023/12/05 08:21:11;;;;;;;45.20;29.10;;;;;;;-0.44;74.11;100210.17;104393;1255;95919;-67
2023/12/05 08:23:38;;;;;;;40.00;25.30;;;;;;;-0.14;73.48;100210.85;104451;1256;111814;-67
2023/12/05 08:26:06;;;;;;;39.80;25.80;;;;;;;0.12;72.45;100208.38;104388;1255;106627;-67
2023/12/05 08:28:34;;;;;;;42.70;26.90;;;;;;;0.27;70.18;100207.50;103369;1256;97814;-67
2023/12/05 08:31:01;;;;;;;42.90;26.60;;;;;;;0.36;70.69;100208.42;102917;1256;137805;-66
2023/12/05 08:33:28;;;;;;;40.30;26.70;;;;;;;0.65;70.91;100212.42;103010;1256;97800;-67
2023/12/05 08:35:55;;;;;;;40.90;27.90;;;;;;;0.91;69.84;100219.79;102930;1259;137826;-67
2023/12/05 08:38:22;;;;;;;41.70;27.10;;;;;;;1.12;70.03;100216.83;104381;1256;107879;-66
2023/12/05 08:40:49;;;;;;;46.10;29.90;;;;;;;1.40;69.00;100222.45;104474;1256;96425;-66
2023/12/05 08:43:16;;;;;;;40.90;26.90;;;;;;;1.60;67.73;100224.60;104319;1256;137738;-67
2023/12/05 08:45:44;;;;;;;42.20;27.30;;;;;;;1.73;67.80;100223.27;104445;1256;95926;-67
2023/12/05 08:48:10;;;;;;;39.80;27.60;;;;;;;1.95;67.14;100217.84;103575;1255;1002249;-67
2023/12/05 08:50:39;;;;;;;40.60;26.70;;;;;;;2.07;65.81;100216.66;103692;1256;1002360;-68
2023/12/05 08:53:06;;;;;;;46.20;28.80;;;;;;;2.13;65.00;100209.64;104478;1256;95877;-67
2023/12/05 08:55:33;;;;;;;43.40;27.80;;;;;;;2.23;65.13;100213.77;103540;1256;1002928;-67
2023/12/05 08:58:00;;;;;;;41.80;28.70;;;;;;;2.34;64.70;100211.56;103705;1256;1002321;-69
2023/12/05 09:00:27;;;;;;;43.00;29.10;;;;;;;2.42;64.79;100208.12;103629;1256;1003230;-67
2023/12/05 09:02:55;;;;;;;39.50;26.30;;;;;;;2.61;64.77;100205.20;104444;1255;107126;-67
2023/12/05 09:05:23;;;;;;;45.20;29.20;;;;;;;2.78;64.73;100207.77;103700;1255;1002511;-67
2023/12/05 09:07:50;;;;;;;44.30;28.70;;;;;;;3.00;64.74;100207.05;104337;1255;138459;-68
2023/12/05 09:10:18;;;;;;;42.70;29.10;;;;;;;3.21;64.02;100205.45;104426;1255;95769;-67
2023/12/05 09:12:45;;;;;;;39.90;27.90;;;;;;;3.41;63.55;100202.80;104347;1256;139923;-67
2023/12/05 09:15:12;;;;;;;40.40;27.20;;;;;;;3.53;62.67;100197.42;104030;1255;107589;-67
2023/12/05 09:17:39;;;;;;;38.90;27.60;;;;;;;3.57;60.99;100196.88;102956;1259;98366;-67
2023/12/05 09:20:10;;;;;;;37.00;26.00;;;;;;;3.49;61.42;100190.21;103055;1256;107889;-68
2023/12/05 09:22:37;;;;;;;39.00;25.90;;;;;;;3.52;60.50;100187.63;103635;1254;1002439;-68
2023/12/05 09:25:05;;;;;;;39.80;27.10;;;;;;;3.45;60.29;100185.95;104378;1255;137924;-68
2023/12/05 09:27:31;;;;;;;40.20;26.90;;;;;;;3.42;60.39;100181.14;103726;1256;1003004;-67
2023/12/05 09:29:58;;;;;;;41.40;27.90;;;;;;;3.46;60.10;100179.23;103581;1255;1002464;-68
2023/12/05 09:32:26;;;;;;;39.00;26.20;;;;;;;3.50;60.66;100178.02;103348;1259;108156;-67
2023/12/05 09:34:53;;;;;;;39.30;26.80;;;;;;;3.67;61.11;100175.35;102406;1258;1002845;-68
2023/12/05 09:37:20;;;;;;;41.20;27.40;;;;;;;3.82;61.16;100174.06;102961;1256;137964;-69
2023/12/05 09:39:47;;;;;;;40.60;27.80;;;;;;;4.00;61.53;100172.74;102391;1256;1002890;-69
2023/12/05 09:42:17;;;;;;;40.40;27.90;;;;;;;4.10;59.61;100171.64;102178;1256;1003252;-67
2023/12/05 09:44:48;;;;;;;38.70;27.40;;;;;;;4.00;59.47;100169.65;102314;1256;1002714;-68
2023/12/05 09:47:19;;;;;;;39.80;27.60;;;;;;;3.98;60.39;100170.19;102409;1258;1003057;-68
2023/12/05 09:49:46;;;;;;;52.80;35.40;;;;;;;4.07;59.98;100179.39;104411;1256;138151;-68
2023/12/05 09:52:15;;;;;;;46.70;30.10;;;;;;;4.08;59.82;100182.31;103373;1257;107155;-68
2023/12/05 09:54:43;;;;;;;40.30;27.80;;;;;;;4.04;59.16;100175.46;102826;1259;156427;-67
2023/12/05 09:57:13;;;;;;;41.00;28.60;;;;;;;3.97;58.78;100175.35;102956;1256;107645;-68
2023/12/05 09:59:41;;;;;;;41.30;27.50;;;;;;;3.90;58.40;100172.29;102881;1256;97805;-67
2023/12/05 10:02:10;;;;;;;41.70;28.30;;;;;;;3.82;58.66;100174.92;103090;1259;112187;-68
2023/12/05 10:04:44;;;;;;;41.40;28.90;;;;;;;3.91;59.27;100173.13;103099;1259;107649;-68
2023/12/05 10:07:13;;;;;;;42.70;28.20;;;;;;;3.98;58.96;100171.39;102965;1254;139085;-67
2023/12/05 10:09:41;;;;;;;41.10;28.10;;;;;;;3.97;57.05;100172.77;103221;1255;107864;-68
2023/12/05 10:12:09;;;;;;;36.50;26.10;;;;;;;3.82;57.19;100167.70;103092;1256;138673;-68
2023/12/05 10:14:36;;;;;;;39.40;26.50;;;;;;;3.74;57.48;100167.39;104133;1253;111950;-68
2023/12/05 10:17:04;;;;;;;40.20;27.00;;;;;;;3.79;57.80;100164.63;103133;1258;107610;-68
2023/12/05 10:19:33;;;;;;;40.60;26.90;;;;;;;3.79;56.86;100163.08;103120;1258;138005;-67
2023/12/05 10:22:00;;;;;;;38.60;26.20;;;;;;;3.73;56.68;100156.56;102484;1254;1003250;-69
2023/12/05 10:24:40;;;;;;;43.30;26.90;;;;;;;3.79;56.70;100159.47;102992;1257;139007;-68
2023/12/05 10:27:09;;;;;;;41.50;28.50;;;;;;;3.77;56.10;100159.13;103176;1254;111855;-68
2023/12/05 10:29:40;;;;;;;39.80;26.70;;;;;;;3.76;56.66;100150.88;102422;1257;1003162;-69
2023/12/05 10:32:08;;;;;;;41.50;26.90;;;;;;;3.87;56.23;100151.16;103193;1259;97844;-68
2023/12/05 10:34:48;;;;;;;39.80;27.40;;;;;;;3.90;56.22;100151.80;103176;1254;107900;-69
2023/12/05 10:37:16;;;;;;;40.50;28.80;;;;;;;4.00;56.70;100150.39;102367;1259;1003676;-70
2023/12/05 10:39:43;;;;;;;40.70;28.50;;;;;;;4.11;56.03;100146.50;103245;1259;111429;-68
2023/12/05 10:42:13;;;;;;;41.50;28.50;;;;;;;4.08;55.83;100136.03;102266;1259;1003101;-72
2023/12/05 10:44:43;;;;;;;39.50;28.40;;;;;;;4.12;55.76;100137.73;102948;1259;98242;-71
2023/12/05 10:47:12;;;;;;;37.00;26.20;;;;;;;4.10;55.12;100134.30;103210;1256;109163;-71
2023/12/05 10:49:41;;;;;;;40.00;28.00;;;;;;;4.05;55.26;100130.20;103061;1259;139175;-70
2023/12/05 10:52:08;;;;;;;42.60;28.00;;;;;;;4.03;55.46;100128.51;102526;1253;1002559;-71
2023/12/05 10:54:35;;;;;;;40.90;27.90;;;;;;;4.07;55.40;100122.79;103436;1255;138009;-70
2023/12/05 10:57:08;;;;;;;39.80;26.80;;;;;;;4.05;54.61;100118.86;103810;1254;1002569;-71